createdAt,value
2022-12-18T00:02:53.533Z,10.05
2022-12-18T00:05:56.367Z,10.30
2022-12-18T00:09:00.919Z,9.82
2022-12-18T00:15:22.089Z,9.77
2022-12-18T00:18:24.814Z,11.23
2022-12-18T00:21:31.424Z,11.20
2022-12-18T00:24:34.189Z,10.43
2022-12-18T00:27:36.865Z,11.33
2022-12-18T00:30:41.153Z,11.03
2022-12-18T00:33:45.175Z,12.60
2022-12-18T00:36:48.987Z,11.30
2022-12-18T00:39:53.096Z,12.10
2022-12-18T00:42:58.764Z,11.50
2022-12-18T00:46:04.244Z,11.23
2022-12-18T00:49:08.299Z,12.65
2022-12-18T00:52:11.090Z,13.27
2022-12-18T00:55:14.128Z,13.45
2022-12-18T00:58:17.845Z,13.47
2022-12-18T01:01:20.990Z,12.07
2022-12-18T01:04:27.132Z,14.00
2022-12-18T01:07:33.184Z,14.27
2022-12-18T01:10:35.930Z,12.65
2022-12-18T01:13:39.652Z,13.13
2022-12-18T01:16:43.084Z,14.23
2022-12-18T01:19:46.559Z,14.90
2022-12-18T01:22:49.222Z,13.57
2022-12-18T01:25:51.896Z,12.52
2022-12-18T01:28:56.659Z,14.23
2022-12-18T01:31:59.404Z,15.13
2022-12-18T01:35:02.160Z,12.73
2022-12-18T01:38:08.082Z,13.75
2022-12-18T01:41:11.712Z,13.02
2022-12-18T01:44:48.865Z,13.43
2022-12-18T01:48:01.087Z,13.47
2022-12-18T01:51:04.066Z,12.85
2022-12-18T01:54:06.685Z,12.02
2022-12-18T01:57:09.566Z,12.48
2022-12-18T02:00:16.316Z,12.87
2022-12-18T02:03:19.048Z,12.13
2022-12-18T02:06:32.108Z,13.27
2022-12-18T02:09:46.769Z,13.27
2022-12-18T02:13:14.914Z,12.32
2022-12-18T02:16:46.435Z,13.50
2022-12-18T02:20:07.940Z,12.27
2022-12-18T02:23:41.282Z,13.10
2022-12-18T02:26:53.022Z,12.00
2022-12-18T02:29:59.177Z,12.23
2022-12-18T02:33:03.914Z,11.73
2022-12-18T02:36:08.162Z,13.57
2022-12-18T02:39:12.850Z,12.95
2022-12-18T02:42:15.883Z,11.85
2022-12-18T02:45:18.760Z,12.18
2022-12-18T02:48:25.329Z,12.47
2022-12-18T02:51:39.859Z,12.27
2022-12-18T02:55:04.342Z,11.70
2022-12-18T02:58:36.230Z,11.57
2022-12-18T03:01:51.557Z,11.85
2022-12-18T03:05:17.690Z,10.83
2022-12-18T03:08:24.451Z,10.83
2022-12-18T03:11:58.984Z,10.20
2022-12-18T03:15:16.009Z,10.55
2022-12-18T03:18:30.955Z,9.68
2022-12-18T03:21:56.001Z,10.93
2022-12-18T03:24:59.702Z,9.97
2022-12-18T03:28:03.648Z,10.60
2022-12-18T03:31:09.941Z,10.48
2022-12-18T03:34:17.767Z,9.30
2022-12-18T03:37:20.617Z,11.23
2022-12-18T03:40:30.877Z,10.80
2022-12-18T03:43:43.666Z,10.52
2022-12-18T03:47:06.015Z,11.23
2022-12-18T03:50:21.473Z,9.98
2022-12-18T03:53:56.911Z,11.13
2022-12-18T03:57:15.259Z,11.03
2022-12-18T04:00:19.515Z,10.40
2022-12-18T04:03:26.238Z,10.52
2022-12-18T04:06:30.759Z,11.30
2022-12-18T04:09:34.390Z,11.57
2022-12-18T04:12:38.961Z,10.87
2022-12-18T04:15:44.765Z,10.18
2022-12-18T04:18:47.616Z,11.02
2022-12-18T04:21:50.496Z,9.65
2022-12-18T04:24:53.149Z,11.43
2022-12-18T04:27:58.883Z,10.53
2022-12-18T04:31:01.563Z,10.23
2022-12-18T04:34:07.361Z,9.82
2022-12-18T04:37:10.046Z,8.63
2022-12-18T04:40:13.551Z,9.33
2022-12-18T04:43:16.218Z,11.30
2022-12-18T04:46:18.898Z,9.85
2022-12-18T04:49:21.535Z,9.50
2022-12-18T04:52:25.022Z,9.60
2022-12-18T04:55:28.635Z,9.47
2022-12-18T04:58:31.606Z,10.90
2022-12-18T05:01:35.120Z,9.60
2022-12-18T05:04:38.000Z,8.48
2022-12-18T05:07:40.767Z,9.38
2022-12-18T05:10:44.167Z,9.30
2022-12-18T05:13:46.879Z,10.00
2022-12-18T05:16:49.560Z,10.15
2022-12-18T05:19:55.446Z,9.25
2022-12-18T05:22:58.322Z,9.73
2022-12-18T05:26:03.065Z,9.30
2022-12-18T05:29:06.286Z,8.93
2022-12-18T05:32:09.350Z,9.30
2022-12-18T05:35:12.467Z,9.73
2022-12-18T05:38:15.110Z,9.32
2022-12-18T05:41:17.785Z,9.07
2022-12-18T05:44:20.459Z,9.83
2022-12-18T05:47:23.364Z,10.02
2022-12-18T05:50:26.099Z,9.48
2022-12-18T05:53:28.862Z,10.23
2022-12-18T05:56:31.555Z,10.13
2022-12-18T05:59:34.648Z,9.97
2022-12-18T06:02:37.596Z,10.05
2022-12-18T06:05:44.757Z,9.13
2022-12-18T06:08:47.916Z,8.50
2022-12-18T06:11:53.061Z,10.30
2022-12-18T06:14:55.795Z,8.77
2022-12-18T06:17:58.625Z,10.10
2022-12-18T06:21:01.744Z,8.95
2022-12-18T06:24:05.046Z,9.05
2022-12-18T06:27:07.649Z,9.43
2022-12-18T06:30:11.639Z,9.10
2022-12-18T06:33:14.490Z,9.40
2022-12-18T06:36:17.847Z,10.00
2022-12-18T06:39:20.654Z,10.02
2022-12-18T06:42:23.638Z,8.70
2022-12-18T06:45:26.606Z,9.83
2022-12-18T06:48:30.022Z,10.32
2022-12-18T06:51:33.055Z,10.02
2022-12-18T06:54:35.776Z,11.45
2022-12-18T06:57:39.099Z,10.80
2022-12-18T07:00:45.183Z,10.50
2022-12-18T07:03:52.503Z,11.15
2022-12-18T07:06:55.541Z,10.73
2022-12-18T07:09:58.271Z,10.07
2022-12-18T07:13:02.069Z,9.97
2022-12-18T07:16:15.948Z,10.03
2022-12-18T07:19:20.053Z,10.98
2022-12-18T07:22:23.295Z,10.88
2022-12-18T07:25:27.018Z,11.20
2022-12-18T07:28:30.113Z,12.30
2022-12-18T07:31:33.003Z,11.83
2022-12-18T07:34:39.048Z,11.32
2022-12-18T07:37:41.772Z,10.93
2022-12-18T07:40:47.288Z,10.07
2022-12-18T07:43:50.202Z,9.53
2022-12-18T07:46:52.930Z,10.63
2022-12-18T07:49:55.772Z,10.30
2022-12-18T07:52:58.828Z,10.13
2022-12-18T07:56:26.607Z,11.68
2022-12-18T07:59:29.374Z,10.63
2022-12-18T08:02:33.084Z,11.87
2022-12-18T08:05:35.817Z,11.60
2022-12-18T08:08:38.751Z,12.37
2022-12-18T08:11:41.427Z,14.90
2022-12-18T08:14:44.056Z,13.87
2022-12-18T08:17:46.894Z,42.47
2022-12-18T08:20:49.716Z,70.78
2022-12-18T08:23:54.296Z,20.55
2022-12-18T08:27:21.234Z,17.60
2022-12-18T08:30:21.376Z,16.00
2022-12-18T08:33:24.888Z,15.33
2022-12-18T08:36:28.170Z,17.05
2022-12-18T08:39:31.055Z,17.77
2022-12-18T08:42:52.485Z,21.08
2022-12-18T08:45:55.317Z,18.30
2022-12-18T08:48:58.127Z,34.20
2022-12-18T08:52:01.206Z,18.20
2022-12-18T08:55:04.234Z,15.18
2022-12-18T08:58:06.924Z,16.00
2022-12-18T09:01:13.392Z,57.23
2022-12-18T09:04:16.662Z,129.53
2022-12-18T09:07:19.362Z,24.83
2022-12-18T09:10:22.575Z,16.40
2022-12-18T09:13:25.775Z,25.20
2022-12-18T09:16:32.266Z,17.10
2022-12-18T09:19:35.611Z,18.20
2022-12-18T09:22:38.304Z,17.48
2022-12-18T09:25:41.943Z,17.10
2022-12-18T09:28:45.306Z,18.65
2022-12-18T09:31:51.092Z,14.83
2022-12-18T09:34:56.803Z,16.67
2022-12-18T09:37:59.656Z,17.52
2022-12-18T09:41:23.791Z,19.10
2022-12-18T09:44:47.612Z,21.62
2022-12-18T09:47:51.897Z,16.00
2022-12-18T09:50:58.893Z,14.30
2022-12-18T09:54:09.160Z,15.60
2022-12-18T09:57:20.262Z,16.87
2022-12-18T10:00:25.203Z,16.77
2022-12-18T10:03:30.820Z,23.40
2022-12-18T10:06:38.407Z,15.73
2022-12-18T10:09:59.915Z,16.33
2022-12-18T10:13:06.244Z,15.93
2022-12-18T10:16:23.909Z,15.30
2022-12-18T10:19:52.918Z,14.77
2022-12-18T10:23:09.794Z,13.47
2022-12-18T10:26:15.891Z,14.70
2022-12-18T10:29:19.653Z,14.15
2022-12-18T10:32:31.033Z,14.23
2022-12-18T10:35:33.865Z,14.20
2022-12-18T10:38:39.533Z,15.00
2022-12-18T10:41:43.099Z,17.02
2022-12-18T10:45:07.552Z,14.10
2022-12-18T10:48:21.292Z,15.20
2022-12-18T10:51:34.666Z,14.97
2022-12-18T10:54:37.658Z,13.70
2022-12-18T10:57:42.777Z,16.05
2022-12-18T11:00:45.451Z,14.50
2022-12-18T11:04:02.609Z,15.52
2022-12-18T11:07:08.068Z,14.80
2022-12-18T11:10:20.417Z,14.57
2022-12-18T11:13:25.461Z,14.38
2022-12-18T11:16:32.040Z,15.80
2022-12-18T11:19:39.856Z,15.40
2022-12-18T11:22:42.548Z,15.97
2022-12-18T11:26:03.489Z,15.53
2022-12-18T11:29:12.218Z,14.80
2022-12-18T11:32:40.766Z,14.65
2022-12-18T11:36:03.990Z,16.20
2022-12-18T11:39:36.405Z,15.10
2022-12-18T11:42:46.189Z,15.97
2022-12-18T11:45:54.962Z,15.63
2022-12-18T11:49:29.244Z,15.50
2022-12-18T11:52:39.823Z,14.52
2022-12-18T11:55:51.939Z,15.93
2022-12-18T11:59:10.457Z,17.80
2022-12-18T12:02:19.273Z,16.48
2022-12-18T12:05:44.000Z,17.80
2022-12-18T12:09:05.453Z,17.15
2022-12-18T12:12:32.204Z,17.10
2022-12-18T12:15:48.334Z,17.43
2022-12-18T12:19:35.696Z,17.40
2022-12-18T12:22:54.812Z,17.23
2022-12-18T12:26:03.539Z,16.92
2022-12-18T12:29:20.834Z,17.47
2022-12-18T12:32:43.101Z,19.10
2022-12-18T12:36:26.545Z,16.37
2022-12-18T12:39:35.841Z,15.52
2022-12-18T12:43:09.456Z,16.23
2022-12-18T12:46:15.446Z,16.90
2022-12-18T12:49:23.621Z,16.47
2022-12-18T12:52:33.992Z,17.98
2022-12-18T12:55:40.566Z,20.10
2022-12-18T12:58:48.311Z,17.15
2022-12-18T13:02:06.708Z,17.70
2022-12-18T13:05:21.454Z,34.20
2022-12-18T13:12:23.331Z,18.48
2022-12-18T13:13:43.832Z,32.72
2022-12-18T13:15:40.001Z,17.55
2022-12-18T13:18:53.260Z,16.93
2022-12-18T13:21:57.777Z,17.63
2022-12-18T13:25:00.760Z,25.60
2022-12-18T13:28:10.461Z,29.15
2022-12-18T13:31:30.354Z,19.70
2022-12-18T13:34:33.807Z,19.47
2022-12-18T13:37:45.119Z,17.30
2022-12-18T13:40:50.727Z,16.10
2022-12-18T13:43:55.621Z,17.20
2022-12-18T13:46:58.736Z,17.92
2022-12-18T13:50:03.363Z,17.00
2022-12-18T13:53:06.630Z,20.60
2022-12-18T13:56:09.505Z,18.23
2022-12-18T13:59:16.803Z,17.60
2022-12-18T14:02:24.042Z,18.80
2022-12-18T14:05:29.700Z,20.93
2022-12-18T14:08:41.818Z,18.33
2022-12-18T14:11:49.724Z,18.23
2022-12-18T14:14:54.978Z,18.25
2022-12-18T14:18:10.318Z,26.48
2022-12-18T14:21:39.075Z,30.20
2022-12-18T14:24:42.296Z,21.10
2022-12-18T14:27:51.440Z,17.40
2022-12-18T14:30:55.974Z,16.77
2022-12-18T14:33:58.743Z,15.75
2022-12-18T14:37:01.551Z,24.73
2022-12-18T14:40:11.082Z,24.50
2022-12-18T14:43:15.154Z,29.95
2022-12-18T14:46:40.277Z,28.38
2022-12-18T14:49:44.589Z,19.25
2022-12-18T14:52:47.288Z,20.40
2022-12-18T14:55:50.364Z,22.03
2022-12-18T14:58:56.630Z,21.62
2022-12-18T15:02:05.910Z,22.00
2022-12-18T15:05:15.251Z,22.02
2022-12-18T15:08:51.345Z,23.10
2022-12-18T15:11:59.280Z,21.67
2022-12-18T15:15:02.496Z,24.30
2022-12-18T15:18:13.768Z,24.45
2022-12-18T15:21:19.933Z,25.25
2022-12-18T15:24:28.853Z,26.73
2022-12-18T15:27:35.995Z,27.63
2022-12-18T15:30:38.724Z,26.00
2022-12-18T15:34:02.196Z,26.55
2022-12-18T15:37:05.084Z,24.70
2022-12-18T15:40:09.989Z,25.53
2022-12-18T15:43:31.264Z,25.40
2022-12-18T15:46:34.243Z,27.65
2022-12-18T15:49:37.297Z,27.80
2022-12-18T15:52:44.868Z,26.70
2022-12-18T15:56:06.494Z,28.60
2022-12-18T15:59:15.014Z,25.40
2022-12-18T16:02:19.750Z,24.95
2022-12-18T16:05:24.460Z,28.67
2022-12-18T16:08:30.334Z,27.80
2022-12-18T16:11:39.619Z,25.93
2022-12-18T16:14:43.115Z,24.63
2022-12-18T16:17:49.102Z,24.80
2022-12-18T16:20:52.798Z,25.75
2022-12-18T16:23:55.919Z,25.35
2022-12-18T16:27:04.955Z,23.50
2022-12-18T16:30:10.838Z,24.33
2022-12-18T16:33:13.636Z,27.10
2022-12-18T16:36:16.662Z,38.55
2022-12-18T16:39:19.442Z,35.88
2022-12-18T16:42:22.531Z,36.03
2022-12-18T16:45:34.333Z,36.40
2022-12-18T16:48:37.213Z,38.97
2022-12-18T16:51:40.593Z,36.53
2022-12-18T16:54:43.557Z,38.13
2022-12-18T16:57:46.584Z,38.10
2022-12-18T17:00:49.728Z,36.37
2022-12-18T17:03:55.527Z,36.92
2022-12-18T17:06:59.219Z,34.58
2022-12-18T17:10:01.978Z,41.35
2022-12-18T17:13:06.060Z,35.27
2022-12-18T17:16:10.200Z,40.20
2022-12-18T17:19:17.419Z,35.38
2022-12-18T17:22:23.603Z,33.72
2022-12-18T17:25:26.655Z,34.45
2022-12-18T17:28:29.937Z,34.50
2022-12-18T17:31:36.036Z,32.10
2022-12-18T17:34:41.972Z,34.03
2022-12-18T17:37:44.673Z,31.50
2022-12-18T17:40:48.342Z,32.47
2022-12-18T17:43:55.476Z,32.13
2022-12-18T17:46:58.909Z,32.53
2022-12-18T17:50:01.782Z,32.78
2022-12-18T17:53:04.788Z,32.85
2022-12-18T17:56:09.585Z,36.92
2022-12-18T17:59:14.834Z,42.20
2022-12-18T18:02:17.986Z,45.97
2022-12-18T18:05:21.454Z,40.55
2022-12-18T18:08:24.994Z,44.67
2022-12-18T18:11:46.834Z,43.50
2022-12-18T18:14:52.942Z,38.30
2022-12-18T18:17:55.972Z,37.23
2022-12-18T18:20:58.855Z,39.42
2022-12-18T18:24:03.470Z,34.70
2022-12-18T18:27:06.289Z,37.28
2022-12-18T18:30:10.014Z,33.60
2022-12-18T18:33:13.085Z,33.40
2022-12-18T18:36:16.098Z,32.95
2022-12-18T18:39:19.460Z,33.92
2022-12-18T18:42:22.438Z,35.35
2022-12-18T18:45:25.643Z,34.97
2022-12-18T18:48:31.076Z,31.63
2022-12-18T18:51:35.724Z,35.35
2022-12-18T18:54:51.914Z,35.92
2022-12-18T18:58:01.743Z,34.75
2022-12-18T19:01:13.139Z,33.17
2022-12-18T19:04:16.339Z,33.93
2022-12-18T19:07:30.690Z,35.53
2022-12-18T19:10:43.656Z,37.35
2022-12-18T19:13:47.371Z,37.50
2022-12-18T19:16:50.410Z,36.80
2022-12-18T19:19:53.801Z,38.77
2022-12-18T19:22:56.802Z,35.92
2022-12-18T19:26:16.964Z,37.58
2022-12-18T19:29:24.249Z,40.65
2022-12-18T19:32:27.250Z,40.73
2022-12-18T19:35:30.672Z,41.67
2022-12-18T19:38:33.583Z,44.45
2022-12-18T19:41:36.659Z,44.60
2022-12-18T19:44:40.379Z,40.83
2022-12-18T19:47:43.644Z,44.43
2022-12-18T19:50:46.703Z,44.67
2022-12-18T19:53:54.988Z,43.65
2022-12-18T19:57:02.977Z,39.05
2022-12-18T20:00:06.999Z,39.28
2022-12-18T20:03:21.227Z,36.83
2022-12-18T20:06:32.983Z,37.00
2022-12-18T20:09:37.126Z,40.38
2022-12-18T20:12:39.974Z,41.37
2022-12-18T20:15:45.314Z,40.97
2022-12-18T20:18:50.318Z,41.53
2022-12-18T20:21:54.298Z,42.40
2022-12-18T20:24:57.116Z,48.22
2022-12-18T20:28:01.817Z,44.08
2022-12-18T20:31:10.533Z,51.05
2022-12-18T20:34:17.921Z,46.17
2022-12-18T20:37:24.439Z,45.53
2022-12-18T20:40:27.780Z,47.10
2022-12-18T20:43:31.475Z,43.97
2022-12-18T20:46:34.199Z,44.50
2022-12-18T20:49:37.376Z,43.40
2022-12-18T20:52:41.594Z,40.57
2022-12-18T20:55:45.062Z,38.38
2022-12-18T20:58:47.892Z,48.87
2022-12-18T21:01:54.973Z,40.22
2022-12-18T21:04:58.024Z,38.47
2022-12-18T21:08:00.816Z,39.50
2022-12-18T21:11:36.042Z,42.38
2022-12-18T21:14:39.219Z,41.40
2022-12-18T21:17:45.078Z,44.22
2022-12-18T21:20:48.201Z,44.60
2022-12-18T21:23:51.381Z,46.30
2022-12-18T21:26:54.712Z,43.97
2022-12-18T21:29:58.777Z,43.38
2022-12-18T21:33:01.644Z,40.72
2022-12-18T21:36:07.416Z,41.13
2022-12-18T21:39:10.385Z,41.67
2022-12-18T21:42:31.904Z,42.55
2022-12-18T21:45:34.771Z,43.40
2022-12-18T21:48:40.765Z,41.35
2022-12-18T21:51:44.083Z,39.33
2022-12-18T21:54:46.789Z,43.67
2022-12-18T21:57:50.452Z,45.80
2022-12-18T22:00:53.307Z,40.10
2022-12-18T22:03:55.993Z,43.70
2022-12-18T22:07:02.165Z,42.73
2022-12-18T22:10:05.080Z,45.40
2022-12-18T22:13:08.448Z,48.53
2022-12-18T22:16:11.272Z,49.42
2022-12-18T22:19:14.174Z,42.90
2022-12-18T22:22:17.739Z,42.67
2022-12-18T22:25:20.426Z,42.87
2022-12-18T22:28:41.815Z,38.33
2022-12-18T22:31:44.698Z,34.88
2022-12-18T22:34:47.535Z,31.02
2022-12-18T22:37:50.268Z,31.07
2022-12-18T22:40:53.271Z,31.00
2022-12-18T22:43:56.196Z,27.92
2022-12-18T22:47:05.629Z,29.12
2022-12-18T22:50:12.769Z,27.98
2022-12-18T22:53:15.463Z,28.10
2022-12-18T22:56:21.214Z,27.73
2022-12-18T22:59:25.134Z,25.95
2022-12-18T23:02:27.845Z,23.33
2022-12-18T23:05:31.297Z,25.05
2022-12-18T23:08:34.878Z,25.17
2022-12-18T23:11:37.591Z,24.57
2022-12-18T23:14:40.280Z,27.85
2022-12-18T23:17:43.096Z,27.52
2022-12-18T23:20:45.860Z,27.23
2022-12-18T23:23:48.852Z,28.07
2022-12-18T23:26:51.687Z,26.93
2022-12-18T23:29:54.425Z,29.90
2022-12-18T23:32:59.482Z,33.83
2022-12-18T23:36:03.405Z,28.98
2022-12-18T23:39:06.352Z,35.00
2022-12-18T23:42:09.096Z,33.23
2022-12-18T23:45:16.612Z,32.55
2022-12-18T23:48:21.467Z,33.30
2022-12-18T23:51:25.839Z,31.75
2022-12-18T23:54:33.212Z,30.43
2022-12-18T23:57:36.406Z,31.27
